Time;durP1;ratioP1;P1;durP2;ratioP2;P2;SDS_P1;SDS_P2;PMS_P1;PMS_P2;Temp;Humidity;BMP_temperature;BMP_pressure;BME280_temperature;BME280_humidity;BME280_pressure;Samples;Min_cycle;Max_cycle;Signal;HPM_P1;HPM_P2
2022/06/16 00:02:44;;;;;;;12.85;2.97;;;22.20;99.90;;;;;;5032257;28;20045;-69
2022/06/16 00:05:48;;;;;;;8.60;2.50;;;22.20;99.90;;;;;;5032120;28;20252;-68
2022/06/16 00:08:52;;;;;;;6.80;3.45;;;22.20;99.90;;;;;;5032214;28;20040;-68
2022/06/16 00:11:56;;;;;;;7.85;4.60;;;22.10;99.90;;;;;;5031992;28;20064;-68
2022/06/16 00:15:01;;;;;;;5.85;3.70;;;21.80;99.90;;;;;;5032053;28;20444;-69
2022/06/16 00:18:05;;;;;;;5.95;3.60;;;21.60;99.90;;;;;;5031337;28;20044;-69
2022/06/16 00:21:09;;;;;;;5.88;3.53;;;21.60;99.90;;;;;;5031820;28;20045;-68
2022/06/16 00:24:14;;;;;;;7.50;3.70;;;21.60;99.90;;;;;;5032006;28;20068;-68
2022/06/16 00:27:18;;;;;;;6.40;3.70;;;21.60;99.90;;;;;;5031331;28;20048;-69
2022/06/16 00:30:22;;;;;;;5.00;3.15;;;21.50;99.90;;;;;;5031020;28;20045;-69
2022/06/16 00:33:26;;;;;;;8.63;3.53;;;21.50;99.90;;;;;;5031780;28;20049;-69
2022/06/16 00:36:30;;;;;;;7.70;4.35;;;21.40;99.90;;;;;;5030376;28;20049;-68
2022/06/16 00:39:34;;;;;;;5.32;3.67;;;21.30;99.90;;;;;;5030400;28;20400;-68
2022/06/16 00:42:43;;;;;;;9.93;3.55;;;21.30;99.90;;;;;;5031329;28;20041;-68
2022/06/16 00:45:53;;;;;;;4.85;3.20;;;21.30;99.90;;;;;;5031335;28;20423;-68
2022/06/16 00:49:02;;;;;;;6.03;2.95;;;21.30;99.90;;;;;;5031407;28;20049;-69
2022/06/16 00:52:12;;;;;;;5.35;3.20;;;21.30;99.90;;;;;;5031023;28;20061;-68
2022/06/16 00:55:17;;;;;;;6.55;3.25;;;21.30;99.90;;;;;;5030396;28;20044;-68
2022/06/16 00:58:24;;;;;;;7.55;3.55;;;21.10;99.90;;;;;;5030301;28;20396;-68
2022/06/16 01:01:29;;;;;;;5.68;3.08;;;21.00;99.90;;;;;;5031087;28;20048;-68
2022/06/16 01:04:51;;;;;;;6.88;3.22;;;20.90;99.90;;;;;;5031252;28;20049;-69
2022/06/16 01:07:58;;;;;;;6.70;3.40;;;20.80;99.90;;;;;;5030513;28;20060;-68
2022/06/16 01:11:09;;;;;;;7.60;3.50;;;20.80;99.90;;;;;;5030264;28;20044;-68
2022/06/16 01:14:42;;;;;;;6.15;3.72;;;20.80;99.90;;;;;;5030901;28;20064;-69
2022/06/16 01:18:01;;;;;;;7.80;3.90;;;20.80;99.90;;;;;;5030432;28;20052;-68
2022/06/16 01:21:30;;;;;;;6.57;3.92;;;20.80;99.90;;;;;;5030900;28;20052;-68
2022/06/16 01:25:00;;;;;;;5.82;4.43;;;20.70;99.90;;;;;;5034149;28;20049;-68
2022/06/16 01:28:25;;;;;;;7.93;3.70;;;20.70;99.90;;;;;;5022285;28;20049;-68
2022/06/16 01:31:40;;;;;;;6.78;3.70;;;20.70;99.90;;;;;;5029921;28;20037;-68
2022/06/16 01:34:57;;;;;;;7.60;4.03;;;20.70;99.90;;;;;;5030131;28;20041;-68
2022/06/16 01:38:12;;;;;;;8.73;3.70;;;20.60;99.90;;;;;;5029483;28;20440;-68
2022/06/16 01:41:29;;;;;;;10.75;4.80;;;20.40;99.90;;;;;;5029427;28;20068;-68
2022/06/16 01:45:10;;;;;;;7.57;3.58;;;20.30;99.90;;;;;;5030124;28;20044;-68
2022/06/16 01:48:17;;;;;;;6.60;3.88;;;20.20;99.90;;;;;;5030406;28;20056;-69
2022/06/16 01:51:32;;;;;;;5.88;3.80;;;20.20;99.90;;;;;;5030523;28;20132;-68
2022/06/16 01:54:41;;;;;;;6.00;4.03;;;20.20;99.90;;;;;;5029732;28;20212;-68
2022/06/16 01:57:56;;;;;;;7.82;3.70;;;20.10;99.90;;;;;;5031017;28;20048;-68
2022/06/16 02:01:05;;;;;;;6.10;4.05;;;20.10;99.90;;;;;;5022327;28;20396;-68
2022/06/16 02:04:20;;;;;;;6.88;3.65;;;20.00;99.90;;;;;;5033390;28;20044;-68
2022/06/16 02:07:36;;;;;;;7.65;3.15;;;20.00;99.90;;;;;;5033921;28;20048;-69
2022/06/16 02:10:57;;;;;;;6.55;3.63;;;20.10;99.90;;;;;;5022516;28;20048;-68
2022/06/16 02:14:12;;;;;;;7.55;3.83;;;20.00;99.90;;;;;;5033119;28;20048;-68
2022/06/16 02:17:17;;;;;;;6.85;3.90;;;20.10;99.90;;;;;;5032934;28;20044;-68
2022/06/16 02:20:24;;;;;;;9.27;3.95;;;20.10;99.90;;;;;;5033149;28;20045;-68
2022/06/16 02:23:30;;;;;;;9.68;4.30;;;20.00;99.90;;;;;;5033177;28;20044;-68
2022/06/16 02:26:34;;;;;;;10.55;4.25;;;19.90;99.90;;;;;;5032162;28;20044;-69
2022/06/16 02:29:39;;;;;;;7.43;4.40;;;19.90;99.90;;;;;;5033931;28;20048;-69
2022/06/16 02:33:14;;;;;;;6.82;4.40;;;19.80;99.90;;;;;;5033177;28;20372;-68
2022/06/16 02:36:49;;;;;;;8.02;4.85;;;19.70;99.90;;;;;;5033319;28;20040;-69
2022/06/16 02:39:53;;;;;;;8.32;5.35;;;19.50;99.90;;;;;;5033902;28;20045;-68
2022/06/16 02:43:19;;;;;;;7.03;4.40;;;19.30;99.90;;;;;;5033178;28;20041;-69
2022/06/16 02:46:47;;;;;;;7.03;4.53;;;19.20;99.90;;;;;;5032888;28;20048;-68
2022/06/16 02:50:04;;;;;;;6.35;5.03;;;19.20;99.90;;;;;;5032863;28;20380;-68
2022/06/16 02:57:07;;;;;;;10.75;5.60;;;19.20;99.90;;;;;;5032378;28;20064;-69
2022/06/16 03:00:41;;;;;;;6.28;4.68;;;19.30;99.90;;;;;;5032637;28;20044;-68
2022/06/16 03:04:14;;;;;;;10.18;4.70;;;19.20;99.90;;;;;;5030186;28;20048;-69
2022/06/16 03:07:22;;;;;;;8.98;5.38;;;19.20;99.90;;;;;;5032254;28;20040;-69
2022/06/16 03:10:51;;;;;;;10.43;4.57;;;19.30;99.90;;;;;;5031695;28;20048;-69
2022/06/16 03:13:55;;;;;;;9.68;4.03;;;19.30;99.90;;;;;;5033149;28;20044;-69
2022/06/16 03:17:06;;;;;;;8.07;4.22;;;19.30;99.90;;;;;;5031958;28;20049;-69
2022/06/16 03:20:12;;;;;;;11.90;3.85;;;19.30;99.90;;;;;;5032293;28;20044;-69
2022/06/16 03:23:20;;;;;;;10.10;4.20;;;19.20;99.90;;;;;;5031793;28;20069;-69
2022/06/16 03:26:26;;;;;;;10.27;4.28;;;19.30;99.90;;;;;;5032173;28;20057;-68
2022/06/16 03:29:33;;;;;;;10.07;4.30;;;19.30;99.90;;;;;;5031910;28;20261;-69
2022/06/16 03:32:39;;;;;;;6.85;3.30;;;19.40;99.90;;;;;;5031678;28;20048;-68
2022/06/16 03:35:44;;;;;;;5.00;3.35;;;19.50;99.90;;;;;;5031832;28;20045;-69
2022/06/16 03:38:48;;;;;;;4.60;3.35;;;19.60;99.90;;;;;;5032122;28;20056;-68
2022/06/16 03:41:54;;;;;;;9.38;3.10;;;19.60;99.90;;;;;;5031673;28;20068;-68
2022/06/16 03:44:58;;;;;;;6.85;3.13;;;19.60;99.90;;;;;;5031877;28;20384;-69
2022/06/16 03:48:02;;;;;;;7.13;3.40;;;19.70;99.90;;;;;;5031408;28;20044;-69
2022/06/16 03:51:08;;;;;;;11.38;3.60;;;19.70;99.90;;;;;;5018363;28;20507;-68
2022/06/16 03:54:12;;;;;;;17.88;3.60;;;19.80;99.90;;;;;;5031210;28;20303;-68
2022/06/16 03:57:18;;;;;;;9.23;3.60;;;19.80;99.90;;;;;;5030891;28;20048;-68
2022/06/16 04:00:23;;;;;;;10.23;3.95;;;19.80;99.90;;;;;;5030996;28;20112;-68
2022/06/16 04:06:59;;;;;;;5.32;3.50;;;19.80;99.90;;;;;;5030426;28;20052;-68
2022/06/16 04:10:06;;;;;;;7.97;3.83;;;19.90;99.90;;;;;;5031071;28;20040;-69
2022/06/16 04:13:13;;;;;;;6.53;3.63;;;20.00;99.90;;;;;;5030417;28;20060;-68
2022/06/16 04:16:17;;;;;;;6.43;3.65;;;20.10;99.90;;;;;;5031032;28;20044;-68
2022/06/16 04:19:23;;;;;;;9.20;3.33;;;20.00;99.90;;;;;;5030530;28;20397;-68
2022/06/16 04:22:27;;;;;;;7.47;4.20;;;20.00;99.90;;;;;;5030325;28;20040;-69
2022/06/16 04:25:38;;;;;;;7.47;3.22;;;20.10;99.90;;;;;;5030171;28;20036;-68
2022/06/16 04:28:46;;;;;;;6.35;3.25;;;20.00;99.90;;;;;;5030120;28;20076;-68
2022/06/16 04:31:51;;;;;;;8.45;3.70;;;20.50;99.90;;;;;;5030141;28;20117;-68
2022/06/16 04:34:55;;;;;;;4.65;3.53;;;21.20;99.90;;;;;;5030239;28;20112;-68
2022/06/16 04:38:08;;;;;;;4.57;2.90;;;22.00;99.90;;;;;;5030055;28;20048;-69
2022/06/16 04:41:14;;;;;;;10.70;3.53;;;22.70;99.90;;;;;;5030679;28;20056;-68
2022/06/16 04:44:19;;;;;;;10.68;2.70;;;23.60;99.90;;;;;;5030614;28;20040;-69
2022/06/16 04:47:24;;;;;;;5.78;3.10;;;24.50;99.90;;;;;;5029955;28;20082;-68
2022/06/16 04:50:28;;;;;;;9.07;3.13;;;24.80;99.90;;;;;;5018858;28;20041;-68
2022/06/16 04:53:33;;;;;;;4.85;3.20;;;25.80;99.90;;;;;;5030266;28;20040;-68
2022/06/16 04:56:42;;;;;;;6.22;3.13;;;26.90;99.90;;;;;;5029483;28;20044;-69
2022/06/16 05:00:06;;;;;;;5.13;3.50;;;27.60;99.90;;;;;;5030748;28;20052;-68
2022/06/16 05:03:33;;;;;;;6.88;3.38;;;27.20;99.90;;;;;;5017915;28;20040;-68
2022/06/16 05:06:56;;;;;;;7.88;3.15;;;27.60;99.90;;;;;;5028775;28;20507;-68
2022/06/16 05:10:24;;;;;;;6.65;3.20;;;28.50;99.90;;;;;;5031352;28;20491;-68
2022/06/16 05:14:00;;;;;;;8.68;4.05;;;28.90;99.40;;;;;;4992080;28;20522;-68
2022/06/16 05:17:24;;;;;;;8.15;3.60;;;29.30;99.20;;;;;;5030389;28;20108;-69
2022/06/16 05:20:44;;;;;;;5.25;3.85;;;29.70;98.70;;;;;;5029308;28;20040;-69
2022/06/16 05:24:16;;;;;;;7.47;3.90;;;29.10;98.70;;;;;;5018083;28;20044;-68
2022/06/16 05:27:51;;;;;;;8.98;4.50;;;28.20;99.90;;;;;;5028807;28;20049;-68
2022/06/16 05:31:17;;;;;;;7.70;4.30;;;28.40;99.90;;;;;;5028895;28;20044;-68
2022/06/16 05:34:42;;;;;;;7.82;4.80;;;28.30;99.90;;;;;;5020087;28;20040;-68
2022/06/16 05:38:08;;;;;;;7.70;4.30;;;27.00;99.90;;;;;;5028747;28;20064;-68
2022/06/16 05:41:35;;;;;;;9.18;3.90;;;27.40;99.90;;;;;;5029478;28;20036;-68
2022/06/16 05:45:00;;;;;;;7.90;3.97;;;27.70;99.90;;;;;;5029637;28;20388;-68
2022/06/16 05:48:23;;;;;;;6.30;4.05;;;28.00;99.90;;;;;;5029934;28;20044;-68
2022/06/16 05:51:27;;;;;;;12.02;3.95;;;27.60;99.90;;;;;;5029622;28;20400;-68
2022/06/16 05:54:42;;;;;;;9.40;4.43;;;27.70;99.90;;;;;;5029007;28;20405;-69
2022/06/16 05:57:46;;;;;;;7.95;3.90;;;27.70;99.90;;;;;;5029122;28;20052;-68
2022/06/16 06:00:52;;;;;;;5.95;3.25;;;26.80;99.90;;;;;;5027659;28;20040;-68
2022/06/16 06:04:01;;;;;;;5.53;3.28;;;26.80;99.90;;;;;;5014874;28;20044;-68
2022/06/16 06:07:06;;;;;;;9.52;4.53;;;27.60;99.90;;;;;;5039561;28;20415;-68
2022/06/16 06:16:58;;;;;;;7.25;3.92;;;26.80;99.90;;;;;;5009098;28;20500;-68
2022/06/16 06:20:04;;;;;;;5.95;3.92;;;27.50;99.90;;;;;;5010311;28;20041;-68
2022/06/16 06:23:08;;;;;;;8.05;3.13;;;28.00;99.90;;;;;;5025877;28;20408;-68
2022/06/16 06:26:13;;;;;;;6.35;3.10;;;29.80;99.30;;;;;;5028175;28;20049;-69
2022/06/16 06:29:18;;;;;;;8.30;3.33;;;30.70;97.40;;;;;;5029037;28;20503;-69
2022/06/16 06:32:24;;;;;;;14.73;3.55;;;30.70;97.10;;;;;;5027666;28;20052;-69
2022/06/16 06:35:29;;;;;;;6.60;3.60;;;31.50;96.10;;;;;;5029675;28;20048;-69
2022/06/16 06:38:34;;;;;;;8.10;2.88;;;32.10;95.00;;;;;;5018104;28;20060;-69
2022/06/16 06:41:39;;;;;;;6.40;3.00;;;32.60;94.10;;;;;;5028447;28;20498;-68
2022/06/16 06:44:43;;;;;;;5.07;3.10;;;33.00;92.90;;;;;;5027200;28;20516;-68
2022/06/16 06:47:47;;;;;;;6.68;3.00;;;33.00;92.40;;;;;;5032778;28;20049;-69
2022/06/16 06:50:51;;;;;;;9.20;2.55;;;33.10;92.50;;;;;;5014089;28;20069;-68
2022/06/16 06:53:55;;;;;;;7.43;3.00;;;33.60;91.80;;;;;;5027844;28;20036;-69
2022/06/16 06:57:00;;;;;;;3.95;2.45;;;33.70;91.30;;;;;;5025136;28;20490;-69
2022/06/16 07:00:05;;;;;;;4.82;2.42;;;33.00;91.30;;;;;;5018717;28;20491;-69
2022/06/16 07:03:09;;;;;;;5.55;2.28;;;33.80;91.20;;;;;;5028196;28;20048;-71
2022/06/16 07:06:14;;;;;;;5.63;2.70;;;34.80;90.40;;;;;;5032464;28;20044;-70
2022/06/16 07:09:18;;;;;;;7.55;2.70;;;35.30;89.50;;;;;;5031496;28;20044;-70
2022/06/16 07:12:22;;;;;;;4.10;2.58;;;34.10;90.10;;;;;;5028455;28;20033;-70
2022/06/16 07:15:26;;;;;;;6.13;2.40;;;34.00;90.10;;;;;;5024883;28;20044;-71
2022/06/16 07:18:31;;;;;;;4.25;2.60;;;34.00;89.90;;;;;;5023562;28;20048;-71
2022/06/16 07:21:36;;;;;;;4.03;2.47;;;35.00;88.40;;;;;;5031881;28;20048;-71
2022/06/16 07:24:40;;;;;;;6.18;2.40;;;35.20;86.60;;;;;;5032245;28;20068;-69
2022/06/16 07:27:44;;;;;;;8.25;2.58;;;35.30;86.80;;;;;;5031073;28;20052;-71
2022/06/16 07:30:48;;;;;;;5.10;2.67;;;34.60;86.70;;;;;;5022622;28;20040;-70
2022/06/16 07:33:52;;;;;;;3.38;2.22;;;33.60;88.10;;;;;;5032143;28;20036;-71
2022/06/16 07:36:56;;;;;;;5.78;2.72;;;34.00;88.30;;;;;;5031464;28;20821;-71
2022/06/16 07:40:00;;;;;;;5.53;2.85;;;35.70;87.40;;;;;;5027938;28;20040;-71
2022/06/16 07:43:05;;;;;;;6.15;3.00;;;36.10;85.20;;;;;;5012915;28;20041;-69
2022/06/16 07:46:09;;;;;;;5.18;2.40;;;34.90;87.20;;;;;;5012477;28;20049;-71
2022/06/16 07:49:17;;;;;;;4.95;2.20;;;35.90;86.00;;;;;;5029491;28;20059;-71
2022/06/16 07:52:21;;;;;;;7.70;2.60;;;36.80;84.50;;;;;;5028562;28;20040;-69
2022/06/16 07:55:25;;;;;;;5.05;2.47;;;36.00;83.60;;;;;;5031410;28;20041;-70
2022/06/16 07:58:31;;;;;;;4.70;2.13;;;37.40;82.10;;;;;;5032245;28;20044;-71
2022/06/16 08:01:35;;;;;;;6.25;2.55;;;38.00;80.30;;;;;;5032561;28;20048;-70
2022/06/16 08:04:39;;;;;;;5.38;2.47;;;38.60;79.10;;;;;;5032405;28;20053;-70
2022/06/16 08:07:44;;;;;;;6.03;2.30;;;38.50;78.40;;;;;;5011647;28;20068;-69
2022/06/16 08:10:48;;;;;;;6.63;2.42;;;37.60;76.30;;;;;;5018792;28;20048;-69
2022/06/16 08:13:52;;;;;;;8.50;2.10;;;35.60;81.20;;;;;;5032119;28;20048;-70
2022/06/16 08:16:56;;;;;;;6.65;2.25;;;37.50;80.00;;;;;;5031578;28;20714;-69
2022/06/16 08:20:02;;;;;;;7.05;2.15;;;38.90;78.10;;;;;;5031796;28;20048;-69
2022/06/16 08:23:06;;;;;;;4.05;2.08;;;39.20;76.50;;;;;;5032100;28;20049;-69
2022/06/16 08:26:10;;;;;;;7.13;2.05;;;40.10;75.40;;;;;;5021481;28;20037;-70
2022/06/16 08:29:17;;;;;;;5.43;2.20;;;38.50;74.90;;;;;;5030848;28;20052;-69
2022/06/16 08:32:23;;;;;;;6.22;2.10;;;37.50;76.90;;;;;;5027806;28;20041;-69
2022/06/16 08:35:27;;;;;;;6.55;1.83;;;38.40;74.70;;;;;;5030712;28;20049;-69
2022/06/16 08:38:31;;;;;;;4.82;2.08;;;38.40;74.90;;;;;;5024915;28;20056;-69
2022/06/16 08:41:49;;;;;;;5.68;2.03;;;39.20;74.30;;;;;;5031535;28;20052;-70
2022/06/16 08:45:08;;;;;;;5.05;2.17;;;39.80;73.70;;;;;;5031961;28;20078;-71
2022/06/16 08:48:32;;;;;;;7.53;2.00;;;38.70;72.00;;;;;;5012880;28;20049;-71
2022/06/16 08:51:36;;;;;;;4.63;1.80;;;39.20;72.40;;;;;;5025159;28;20044;-70
2022/06/16 08:54:54;;;;;;;5.47;1.75;;;38.00;71.70;;;;;;5031369;28;20056;-69
2022/06/16 08:58:21;;;;;;;4.57;2.05;;;35.70;73.80;;;;;;5029679;28;20049;-71
2022/06/16 09:01:46;;;;;;;4.50;1.73;;;39.20;72.30;;;;;;5026846;28;20041;-70
2022/06/16 09:04:56;;;;;;;3.28;1.77;;;41.80;68.90;;;;;;5030544;28;20052;-72
2022/06/16 09:08:09;;;;;;;4.85;2.03;;;43.50;67.00;;;;;;5024265;28;20040;-71
2022/06/16 09:11:32;;;;;;;6.00;1.90;;;42.10;69.00;;;;;;5030566;28;20037;-71
2022/06/16 09:15:11;;;;;;;8.00;1.95;;;38.80;68.30;;;;;;5030633;28;20032;-73
2022/06/16 09:18:53;;;;;;;2.85;1.50;;;41.20;68.40;;;;;;5030865;28;20044;-71
2022/06/16 09:22:51;;;;;;;4.43;1.42;;;41.40;67.30;;;;;;5028361;28;20531;-71
2022/06/16 09:26:18;;;;;;;4.28;1.52;;;42.20;66.80;;;;;;4967150;28;20697;-71
2022/06/16 09:29:42;;;;;;;3.15;1.40;;;44.00;63.50;;;;;;4976703;28;20052;-70
2022/06/16 09:32:46;;;;;;;3.72;1.70;;;43.90;63.10;;;;;;5024535;28;20044;-71
2022/06/16 09:36:03;;;;;;;2.35;1.20;;;44.90;63.30;;;;;;5025002;28;20046;-71
2022/06/16 09:39:26;;;;;;;5.57;1.58;;;43.10;62.00;;;;;;5026940;28;20048;-71
2022/06/16 09:43:07;;;;;;;3.55;1.30;;;42.30;63.50;;;;;;5029175;28;20053;-70
2022/06/16 09:46:32;;;;;;;2.97;1.30;;;44.30;63.40;;;;;;5025181;28;20045;-71
2022/06/16 09:49:51;;;;;;;5.32;1.58;;;45.60;61.00;;;;;;5027830;28;20048;-71
2022/06/16 09:53:17;;;;;;;2.35;1.30;;;47.10;60.90;;;;;;5028727;28;20036;-71
2022/06/16 09:56:39;;;;;;;3.90;1.30;;;47.20;60.00;;;;;;5022891;28;20472;-72
2022/06/16 10:00:10;;;;;;;3.28;1.45;;;46.80;58.10;;;;;;5023775;28;20041;-71
2022/06/16 10:03:43;;;;;;;4.43;1.70;;;46.40;59.10;;;;;;5021641;28;20044;-71
2022/06/16 10:07:14;;;;;;;2.20;1.30;;;42.30;58.30;;;;;;5021415;28;20531;-71
2022/06/16 10:10:38;;;;;;;12.68;2.35;;;44.10;59.60;;;;;;5026337;28;20036;-71
2022/06/16 10:14:01;;;;;;;8.07;2.10;;;44.20;60.00;;;;;;5024874;28;20555;-69
2022/06/16 10:17:09;;;;;;;2.83;1.90;;;41.00;61.20;;;;;;5027586;28;20053;-71
2022/06/16 10:20:17;;;;;;;5.80;2.00;;;41.30;61.90;;;;;;5028142;28;20045;-71
2022/06/16 10:23:25;;;;;;;6.40;1.90;;;40.70;64.10;;;;;;5029527;28;20040;-71
2022/06/16 10:26:29;;;;;;;9.60;2.33;;;39.70;64.70;;;;;;5024383;28;20393;-71
2022/06/16 10:29:35;;;;;;;3.17;1.70;;;38.80;64.20;;;;;;5023319;28;20056;-70
2022/06/16 10:32:41;;;;;;;5.65;2.20;;;39.30;65.40;;;;;;5024987;28;20053;-69
2022/06/16 10:36:14;;;;;;;5.00;2.45;;;39.90;65.20;;;;;;5032806;28;20056;-69
2022/06/16 10:39:23;;;;;;;6.70;2.78;;;40.00;64.50;;;;;;5028758;28;20402;-70
2022/06/16 10:42:53;;;;;;;5.97;2.10;;;40.00;65.60;;;;;;5030517;28;20081;-71
2022/06/16 10:46:10;;;;;;;5.78;2.80;;;40.90;66.10;;;;;;5030740;28;20052;-70
2022/06/16 10:49:18;;;;;;;7.13;2.47;;;41.70;65.90;;;;;;5027659;28;20048;-71
2022/06/16 10:52:29;;;;;;;5.83;2.83;;;43.40;65.00;;;;;;5025375;28;20287;-69
2022/06/16 10:55:45;;;;;;;4.95;2.50;;;44.80;63.20;;;;;;5020392;28;20037;-69
2022/06/16 10:58:57;;;;;;;4.45;2.85;;;46.00;62.50;;;;;;5028936;28;20511;-71
2022/06/16 11:02:25;;;;;;;7.55;2.88;;;47.00;61.10;;;;;;5031560;28;20048;-70
2022/06/16 11:05:34;;;;;;;9.55;3.30;;;46.50;61.50;;;;;;5022594;28;20040;-71
2022/06/16 11:08:42;;;;;;;5.85;2.92;;;42.60;64.00;;;;;;5030672;28;20041;-72
2022/06/16 11:12:14;;;;;;;7.63;3.47;;;41.60;64.80;;;;;;5027297;28;20049;-71
2022/06/16 11:15:25;;;;;;;7.03;3.08;;;40.00;68.00;;;;;;5025421;28;20403;-70
2022/06/16 11:18:31;;;;;;;17.23;3.60;;;42.10;66.00;;;;;;5025701;28;20040;-70
2022/06/16 11:21:35;;;;;;;6.57;3.10;;;43.50;64.40;;;;;;5012348;28;20056;-71
2022/06/16 11:24:39;;;;;;;9.45;3.30;;;44.30;63.50;;;;;;5018881;28;20056;-70
2022/06/16 11:28:10;;;;;;;8.45;3.53;;;45.60;62.70;;;;;;5025532;28;20041;-70
2022/06/16 11:31:37;;;;;;;5.05;3.22;;;46.10;61.90;;;;;;5021478;28;20041;-70
2022/06/16 11:34:43;;;;;;;6.75;3.28;;;46.40;61.60;;;;;;5019645;28;20487;-69
2022/06/16 11:38:01;;;;;;;5.85;3.17;;;46.70;60.50;;;;;;5026809;28;20399;-70
2022/06/16 11:41:09;;;;;;;5.25;3.05;;;47.00;60.50;;;;;;5024212;28;20037;-70
2022/06/16 11:44:56;;;;;;;8.85;3.20;;;46.50;61.50;;;;;;5023132;28;20040;-70
2022/06/16 11:48:14;;;;;;;8.30;3.42;;;45.50;60.20;;;;;;5019759;28;20040;-70
2022/06/16 11:51:26;;;;;;;5.38;3.30;;;42.60;62.70;;;;;;5023517;28;20044;-69
2022/06/16 11:54:52;;;;;;;5.05;3.63;;;41.80;63.40;;;;;;5027587;28;20056;-69
2022/06/16 11:58:17;;;;;;;14.55;4.13;;;41.40;64.20;;;;;;5018934;28;20064;-69
2022/06/16 12:01:28;;;;;;;7.22;4.30;;;40.90;64.40;;;;;;5031374;28;20040;-69
2022/06/16 12:04:38;;;;;;;5.63;4.20;;;41.70;64.30;;;;;;5031484;28;20053;-69
2022/06/16 12:07:55;;;;;;;12.15;3.53;;;41.70;63.50;;;;;;5025204;28;20049;-69
2022/06/16 12:11:09;;;;;;;7.05;4.05;;;41.10;65.30;;;;;;5030971;28;20049;-69
2022/06/16 12:14:49;;;;;;;7.57;3.65;;;39.50;65.90;;;;;;5022909;28;20040;-68
2022/06/16 12:18:19;;;;;;;9.45;4.22;;;37.60;67.10;;;;;;5027624;28;20041;-69
2022/06/16 12:21:35;;;;;;;7.97;3.97;;;38.40;68.40;;;;;;5030623;28;20048;-69
2022/06/16 12:24:54;;;;;;;9.43;3.88;;;40.00;65.20;;;;;;5011519;28;20041;-70
2022/06/16 12:28:04;;;;;;;9.90;3.60;;;41.20;65.00;;;;;;5029690;28;20124;-70
2022/06/16 12:31:23;;;;;;;8.90;3.50;;;41.90;64.80;;;;;;5029218;28;20045;-70
2022/06/16 12:34:27;;;;;;;8.88;3.55;;;42.40;64.00;;;;;;5022455;28;20049;-70
2022/06/16 12:37:41;;;;;;;6.60;3.17;;;42.40;64.30;;;;;;5028457;28;20056;-69
2022/06/16 12:41:04;;;;;;;7.40;3.20;;;42.70;62.80;;;;;;5028337;28;20048;-69
2022/06/16 12:44:14;;;;;;;8.38;3.30;;;42.70;62.30;;;;;;5029790;28;20044;-69
2022/06/16 12:47:33;;;;;;;4.82;3.78;;;41.90;64.00;;;;;;5027312;28;20485;-69
2022/06/16 12:50:54;;;;;;;9.40;3.40;;;41.90;64.90;;;;;;5028187;28;20503;-71
2022/06/16 12:54:02;;;;;;;11.45;3.95;;;41.80;64.90;;;;;;5026992;28;20403;-70
2022/06/16 12:57:13;;;;;;;7.97;3.63;;;41.70;64.70;;;;;;5028596;28;20037;-70
2022/06/16 13:00:20;;;;;;;4.13;2.80;;;41.50;64.90;;;;;;5030245;28;20056;-70
2022/06/16 13:03:32;;;;;;;6.78;3.33;;;41.30;64.70;;;;;;5026120;28;20495;-69
2022/06/16 13:06:37;;;;;;;4.30;3.22;;;41.40;65.30;;;;;;5021072;28;20045;-70
2022/06/16 13:09:42;;;;;;;5.63;3.30;;;41.50;64.40;;;;;;5019986;28;20044;-70
2022/06/16 13:12:54;;;;;;;6.50;3.22;;;41.50;65.80;;;;;;5019391;28;20061;-68
2022/06/16 13:16:03;;;;;;;9.68;3.20;;;41.60;64.30;;;;;;5016307;28;20048;-68
2022/06/16 13:19:13;;;;;;;8.77;3.33;;;41.70;64.20;;;;;;5019395;28;20061;-69
2022/06/16 13:22:28;;;;;;;5.40;3.20;;;41.50;64.00;;;;;;5022893;28;20385;-70
2022/06/16 13:25:40;;;;;;;6.93;2.67;;;40.50;65.90;;;;;;5023181;28;20287;-70
2022/06/16 13:29:15;;;;;;;7.63;3.58;;;38.70;67.30;;;;;;5019810;28;20404;-70
2022/06/16 13:32:36;;;;;;;7.85;3.47;;;37.20;67.20;;;;;;5015986;28;20048;-69
2022/06/16 13:35:41;;;;;;;8.93;3.22;;;36.70;68.00;;;;;;5025297;28;20044;-69
2022/06/16 13:38:47;;;;;;;7.45;3.15;;;37.50;68.10;;;;;;5026107;28;20045;-70
2022/06/16 13:42:11;;;;;;;6.28;3.33;;;38.10;66.40;;;;;;5019917;28;20057;-68
2022/06/16 13:45:15;;;;;;;8.88;3.33;;;37.30;69.30;;;;;;5022468;28;20527;-70
2022/06/16 13:48:49;;;;;;;7.03;3.40;;;38.00;68.90;;;;;;5016596;28;20045;-70
2022/06/16 13:52:06;;;;;;;5.30;3.03;;;38.60;68.10;;;;;;5026037;28;20040;-69
2022/06/16 13:55:31;;;;;;;9.95;3.10;;;39.00;67.40;;;;;;5022727;28;20388;-70
2022/06/16 13:58:38;;;;;;;15.13;3.50;;;39.40;65.70;;;;;;5024726;28;20515;-70
2022/06/16 14:02:08;;;;;;;6.97;3.40;;;39.50;65.30;;;;;;5029385;28;20117;-70
2022/06/16 14:05:21;;;;;;;4.53;2.60;;;39.70;65.80;;;;;;5022173;28;20507;-70
2022/06/16 14:08:26;;;;;;;8.85;2.85;;;39.00;64.30;;;;;;5023826;28;20044;-69
2022/06/16 14:11:33;;;;;;;5.78;2.80;;;39.00;66.70;;;;;;5032665;28;20048;-69
2022/06/16 14:14:56;;;;;;;8.18;2.92;;;38.80;66.70;;;;;;5027780;28;20048;-70
2022/06/16 14:18:09;;;;;;;8.10;2.70;;;38.10;66.50;;;;;;5031877;28;20049;-69
2022/06/16 14:21:16;;;;;;;7.50;2.53;;;38.30;67.00;;;;;;5032168;28;20420;-69
2022/06/16 14:24:27;;;;;;;7.90;2.53;;;38.40;67.00;;;;;;5028028;28;20053;-69
2022/06/16 14:27:49;;;;;;;8.77;2.72;;;38.30;65.90;;;;;;5021421;28;20052;-71
2022/06/16 14:31:01;;;;;;;8.57;2.60;;;38.30;65.80;;;;;;5032979;28;20044;-71
2022/06/16 14:34:28;;;;;;;5.28;2.05;;;38.00;65.50;;;;;;5024449;28;20045;-70
2022/06/16 14:37:48;;;;;;;7.90;2.65;;;37.90;66.10;;;;;;5023266;28;20040;-69
2022/06/16 14:41:12;;;;;;;6.95;2.10;;;38.20;65.50;;;;;;5023175;28;20395;-70
2022/06/16 14:44:23;;;;;;;6.95;2.58;;;38.30;65.00;;;;;;5022059;28;20045;-69
2022/06/16 14:47:47;;;;;;;13.00;2.45;;;38.10;63.60;;;;;;5026577;28;20041;-70
2022/06/16 14:50:56;;;;;;;5.35;2.30;;;37.90;64.20;;;;;;5022159;28;20040;-70
2022/06/16 14:54:10;;;;;;;8.48;3.08;;;37.40;63.30;;;;;;5028253;28;20049;-70
2022/06/16 14:57:20;;;;;;;8.75;2.60;;;36.40;62.30;;;;;;5025356;28;20036;-71
2022/06/16 15:00:28;;;;;;;6.03;2.38;;;36.10;63.80;;;;;;5028711;28;20120;-71
2022/06/16 15:03:33;;;;;;;8.20;2.33;;;36.40;64.70;;;;;;5029106;28;20060;-68
2022/06/16 15:06:42;;;;;;;5.88;2.30;;;35.00;63.70;;;;;;5026724;28;20040;-69
2022/06/16 15:09:47;;;;;;;8.05;2.63;;;34.50;64.30;;;;;;5025072;28;20040;-69
2022/06/16 15:12:51;;;;;;;5.63;2.33;;;34.60;64.90;;;;;;5029302;28;20387;-67
2022/06/16 15:16:06;;;;;;;9.13;2.40;;;34.00;65.40;;;;;;5026663;28;20044;-69
2022/06/16 15:19:14;;;;;;;6.05;2.40;;;34.10;65.30;;;;;;5032913;28;20040;-70
2022/06/16 15:22:23;;;;;;;8.70;2.97;;;34.80;66.10;;;;;;5031309;28;20069;-70
2022/06/16 15:25:41;;;;;;;10.68;3.10;;;34.90;65.30;;;;;;5012873;28;20044;-69
2022/06/16 15:28:53;;;;;;;8.13;2.55;;;34.90;65.30;;;;;;5013531;28;20049;-69
2022/06/16 15:31:58;;;;;;;6.32;2.30;;;35.20;65.60;;;;;;5013249;28;20048;-70
2022/06/16 15:38:54;;;;;;;9.40;2.47;;;35.30;67.20;;;;;;5032922;28;20052;-71
2022/06/16 15:42:06;;;;;;;11.43;3.00;;;35.10;68.80;;;;;;5032204;28;20048;-70
2022/06/16 15:45:11;;;;;;;8.88;2.40;;;35.00;67.80;;;;;;5031933;28;20388;-72
2022/06/16 15:48:17;;;;;;;8.25;2.58;;;34.80;68.40;;;;;;5032132;28;20060;-72
2022/06/16 15:51:21;;;;;;;6.40;2.33;;;34.60;69.90;;;;;;5023596;28;20036;-71
2022/06/16 15:54:26;;;;;;;8.25;2.97;;;34.60;70.60;;;;;;5012773;28;20041;-71
2022/06/16 15:57:32;;;;;;;8.52;3.08;;;34.40;70.70;;;;;;5029433;28;20041;-68
2022/06/16 16:00:36;;;;;;;6.32;2.40;;;34.30;70.40;;;;;;5032191;28;20121;-72
2022/06/16 16:03:41;;;;;;;12.15;2.85;;;34.10;70.70;;;;;;5030379;28;20384;-71
2022/06/16 16:06:47;;;;;;;4.97;2.47;;;34.00;71.70;;;;;;5030970;28;20052;-71
2022/06/16 16:09:53;;;;;;;7.40;3.05;;;33.90;70.50;;;;;;5020021;28;20040;-70
2022/06/16 16:13:08;;;;;;;7.45;2.70;;;33.70;71.00;;;;;;5030930;28;20048;-70
2022/06/16 16:16:15;;;;;;;10.18;3.38;;;33.70;72.20;;;;;;5030310;28;20416;-70
2022/06/16 16:19:20;;;;;;;6.05;2.78;;;33.80;72.70;;;;;;5032007;28;20056;-72
2022/06/16 16:22:24;;;;;;;7.25;2.83;;;33.90;72.90;;;;;;5030958;28;20044;-72
2022/06/16 16:25:42;;;;;;;5.55;2.80;;;34.00;73.20;;;;;;5031727;28;20052;-72
2022/06/16 16:29:03;;;;;;;8.82;2.72;;;34.10;73.70;;;;;;5031072;28;20040;-71
2022/06/16 16:32:08;;;;;;;10.63;2.55;;;34.10;73.50;;;;;;5031157;28;20048;-72
2022/06/16 16:35:14;;;;;;;5.03;2.33;;;34.10;73.90;;;;;;5031118;28;20045;-70
2022/06/16 16:38:35;;;;;;;4.57;2.70;;;33.80;74.20;;;;;;5030591;28;20488;-71
2022/06/16 16:45:28;;;;;;;14.55;3.75;;;33.60;74.90;;;;;;5031595;28;20040;-70
2022/06/16 16:48:51;;;;;;;8.98;3.08;;;33.30;76.40;;;;;;5030973;28;20483;-70
2022/06/16 16:51:55;;;;;;;6.97;2.88;;;33.30;76.80;;;;;;5031901;28;20555;-70
2022/06/16 16:55:03;;;;;;;14.30;3.75;;;33.30;76.60;;;;;;5031288;28;20041;-71
2022/06/16 16:58:08;;;;;;;9.48;3.13;;;33.30;76.30;;;;;;5031092;28;20048;-70
2022/06/16 17:01:13;;;;;;;9.77;3.08;;;33.10;77.50;;;;;;5030561;28;20515;-70
2022/06/16 17:04:23;;;;;;;14.93;3.22;;;33.10;78.00;;;;;;5031471;28;20064;-71